createdAt,value
2017-05-11T00:18:21.879Z,54.73
2017-05-11T01:00:07.498Z,54.67
2017-05-11T01:02:14.855Z,54.45
2017-05-11T01:06:41.469Z,54.07
2017-05-11T01:11:04.143Z,53.89
2017-05-11T01:14:03.656Z,53.87
2017-05-11T01:20:15.047Z,53.91
2017-05-11T01:25:57.465Z,53.95
2017-05-11T01:28:02.001Z,53.88
2017-05-11T01:38:34.698Z,53.41
2017-05-11T01:40:28.492Z,53.45
2017-05-11T01:51:34.898Z,53.44
2017-05-11T01:59:30.200Z,53.43
2017-05-11T02:18:56.725Z,53.65
2017-05-11T02:21:17.077Z,53.7
2017-05-11T02:34:35.329Z,53.86
2017-05-11T02:37:46.203Z,53.96
2017-05-11T02:44:04.030Z,53.78
2017-05-11T02:46:04.395Z,53.8
2017-05-11T02:59:03.582Z,53.58
2017-05-11T03:03:20.238Z,53.43
2017-05-11T03:05:23.741Z,53.47
2017-05-11T03:17:15.807Z,53.2
2017-05-11T03:37:17.721Z,54.36
2017-05-11T03:57:30.965Z,54.19
2017-05-11T04:02:24.344Z,54.12
2017-05-11T04:04:07.184Z,54.1
2017-05-11T04:07:38.236Z,54.04
2017-05-11T04:09:05.059Z,54.07
2017-05-11T04:12:47.113Z,54.16
2017-05-11T04:14:36.138Z,54.2
2017-05-11T04:16:04.679Z,54.22
2017-05-11T04:17:38.856Z,54.27
2017-05-11T04:20:52.651Z,54.3
2017-05-11T04:22:29.740Z,54.36
2017-05-11T04:24:47.201Z,54.28
2017-05-11T04:26:47.936Z,54.26
2017-05-11T04:32:07.962Z,54.18
2017-05-11T04:39:56.564Z,54.07
2017-05-11T04:41:19.684Z,54.09
2017-05-11T04:42:43.966Z,54.1
2017-05-11T04:44:11.298Z,54.12
2017-05-11T04:45:33.643Z,54.16
2017-05-11T05:03:45.559Z,53.74
2017-05-11T05:05:38.400Z,53.69
2017-05-11T07:07:39.523Z,55.07
2017-05-11T08:33:15.328Z,52.04
2017-05-11T08:49:05.535Z,52.3
2017-05-11T08:50:55.210Z,52.07
2017-05-11T09:00:05.825Z,51.78
2017-05-11T09:03:33.651Z,51.72
2017-05-11T09:16:58.425Z,45.55
2017-05-11T09:18:20.432Z,41.97
2017-05-11T09:19:42.395Z,39.68
2017-05-11T09:21:04.304Z,38.11
2017-05-11T09:22:26.300Z,36.88
2017-05-11T09:23:48.124Z,35.83
2017-05-11T09:25:10.683Z,34.83
2017-05-11T09:26:32.605Z,34.02
2017-05-11T09:27:54.602Z,33.21
2017-05-11T09:29:16.461Z,32.51
2017-05-11T09:30:39.345Z,31.95
2017-05-11T09:32:01.163Z,31.33
2017-05-11T09:33:23.145Z,30.92
2017-05-11T09:34:45.271Z,30.46
2017-05-11T09:36:07.083Z,30
2017-05-11T09:37:28.875Z,29.6
2017-05-11T09:38:50.730Z,29.24
2017-05-11T09:40:12.706Z,28.97
2017-05-11T09:41:34.582Z,28.69
2017-05-11T09:42:56.397Z,28.46
2017-05-11T09:44:19.385Z,28.1
2017-05-11T09:45:41.257Z,27.72
2017-05-11T09:47:03.094Z,27.53
2017-05-11T09:48:25.030Z,27.27
2017-05-11T09:49:46.998Z,27.17
2017-05-11T09:51:08.812Z,27.09
2017-05-11T09:52:30.660Z,27.2
2017-05-11T09:53:52.487Z,27.26
2017-05-11T09:55:14.380Z,27.18
2017-05-11T09:56:36.171Z,27.13
2017-05-11T09:57:58.029Z,27.49
2017-05-11T09:59:19.995Z,27.29
2017-05-11T10:00:41.826Z,27.01
2017-05-11T10:02:03.639Z,26.71
2017-05-11T10:03:25.610Z,26.39
2017-05-11T10:04:48.552Z,26.19
2017-05-11T10:06:10.469Z,26.16
2017-05-11T10:07:32.402Z,26.1
2017-05-11T10:08:54.383Z,26.1
2017-05-11T10:10:16.205Z,26.26
2017-05-11T10:11:38.132Z,26.57
2017-05-11T10:13:00.137Z,26.81
2017-05-11T10:14:21.942Z,27.04
2017-05-11T10:15:43.978Z,26.95
2017-05-11T10:17:06.072Z,26.7
2017-05-11T10:18:27.882Z,26.54
2017-05-11T10:19:49.667Z,26.24
2017-05-11T10:21:11.498Z,25.94
2017-05-11T10:22:33.319Z,25.68
2017-05-11T10:23:55.231Z,25.83
2017-05-11T10:25:17.100Z,26.03
2017-05-11T10:26:40.400Z,26.11
2017-05-11T10:28:13.245Z,25.95
2017-05-11T10:29:35.055Z,25.84
2017-05-11T10:30:56.846Z,25.7
2017-05-11T10:32:18.834Z,25.56
2017-05-11T10:33:40.798Z,25.58
2017-05-11T10:35:02.723Z,25.9
2017-05-11T10:36:24.584Z,25.95
2017-05-11T10:37:46.402Z,26
2017-05-11T10:39:08.258Z,26.23
2017-05-11T10:40:30.227Z,26.43
2017-05-11T10:41:53.349Z,26.55
2017-05-11T10:43:15.246Z,26.63
2017-05-11T10:44:37.113Z,26.67
2017-05-11T10:45:59.088Z,26.99
2017-05-11T10:47:20.927Z,27.4
2017-05-11T10:48:43.494Z,27.82
2017-05-11T10:50:05.410Z,27.62
2017-05-11T10:51:27.594Z,27.17
2017-05-11T10:52:49.669Z,26.86
2017-05-11T10:54:11.516Z,26.7
2017-05-11T10:55:33.373Z,26.26
2017-05-11T10:56:55.452Z,25.97
2017-05-11T10:58:17.202Z,26.13
2017-05-11T10:59:39.125Z,26.22
2017-05-11T11:01:00.965Z,26.38
2017-05-11T11:02:22.832Z,26.58
2017-05-11T11:03:44.658Z,26.19
2017-05-11T11:05:06.602Z,25.86
2017-05-11T11:06:28.337Z,25.8
2017-05-11T11:07:50.328Z,25.77
2017-05-11T11:09:12.582Z,25.69
2017-05-11T11:10:34.517Z,25.25
2017-05-11T11:11:56.327Z,24.87
2017-05-11T11:13:18.178Z,24.49
2017-05-11T11:14:40.163Z,24.31
2017-05-11T11:16:02.041Z,24.44
2017-05-11T11:17:23.947Z,24.53
2017-05-11T11:18:45.882Z,24.61
2017-05-11T11:20:07.654Z,25.06
2017-05-11T11:21:29.480Z,25.41
2017-05-11T11:22:51.331Z,25.56
2017-05-11T11:24:13.306Z,25.75
2017-05-11T11:25:35.250Z,25.6
2017-05-11T11:26:57.186Z,25.36
2017-05-11T11:28:19.067Z,25.52
2017-05-11T11:29:47.429Z,25.34
2017-05-11T11:31:10.080Z,25.05
2017-05-11T11:32:32.120Z,24.64
2017-05-11T11:33:53.952Z,25.11
2017-05-11T11:35:15.970Z,25.52
2017-05-11T11:36:37.767Z,25.87
2017-05-11T11:38:00.086Z,26.55
2017-05-11T11:39:21.918Z,26.95
2017-05-11T11:40:44.186Z,27.18
2017-05-11T11:42:06.037Z,27.56
2017-05-11T11:43:28.957Z,27.82
2017-05-11T11:44:50.802Z,28.22
2017-05-11T11:46:12.683Z,28.95
2017-05-11T11:47:35.575Z,29.8
2017-05-11T11:48:57.461Z,30.54
2017-05-11T11:50:25.323Z,31.23
2017-05-11T11:51:47.198Z,31.78
2017-05-11T11:53:09.047Z,32.26
2017-05-11T11:54:30.912Z,32.72
2017-05-11T11:55:52.780Z,33.14
2017-05-11T11:57:14.686Z,33.61
2017-05-11T11:58:36.561Z,34.06
2017-05-11T11:59:58.399Z,34.4
2017-05-11T12:01:20.444Z,34.1
2017-05-11T12:02:45.284Z,34.18
2017-05-11T12:04:07.201Z,34.33
2017-05-11T12:05:29.139Z,34.36
2017-05-11T12:06:51.366Z,33.76
2017-05-11T12:08:31.258Z,32.43
2017-05-11T12:09:53.294Z,30.81
2017-05-11T12:11:22.923Z,29.71
2017-05-11T12:12:44.912Z,29.39
2017-05-11T12:14:06.746Z,28.75
2017-05-11T12:15:28.625Z,27.99
2017-05-11T12:16:50.543Z,27.56
2017-05-11T12:18:12.358Z,27.68
2017-05-11T12:19:34.182Z,27.02
2017-05-11T12:20:56.024Z,26.48
2017-05-11T12:22:19.625Z,25.97
2017-05-11T12:23:42.398Z,25.6
2017-05-11T12:25:04.393Z,25.02
2017-05-11T12:26:26.361Z,24.56
2017-05-11T12:27:48.266Z,24.69
2017-05-11T12:29:10.184Z,25.53
2017-05-11T12:30:32.157Z,27.17
2017-05-11T12:32:00.465Z,27.95
2017-05-11T12:33:22.259Z,27.18
2017-05-11T12:34:44.243Z,26.67
2017-05-11T12:36:06.154Z,26.58
2017-05-11T12:37:28.098Z,26.16
2017-05-11T12:38:49.985Z,25.92
2017-05-11T12:40:11.831Z,26.62
2017-05-11T12:41:33.706Z,27.52
2017-05-11T12:42:55.655Z,28.24
2017-05-11T12:44:17.606Z,29.47
2017-05-11T12:45:39.524Z,30.41
2017-05-11T12:47:01.517Z,31.05
2017-05-11T12:48:23.370Z,30.94
2017-05-11T12:49:45.363Z,31.3
2017-05-11T12:51:07.202Z,31.46
2017-05-11T12:52:42.348Z,32.08
2017-05-11T12:54:04.215Z,32.91
2017-05-11T12:55:26.089Z,33.12
2017-05-11T12:56:47.925Z,33.68
2017-05-11T12:58:10.123Z,34.43
2017-05-11T12:59:32.032Z,35.2
2017-05-11T13:00:53.977Z,35.77
2017-05-11T13:02:15.826Z,36.27
2017-05-11T13:03:37.712Z,36.69
2017-05-11T13:04:59.596Z,36.98
2017-05-11T13:06:21.539Z,37.16
2017-05-11T13:07:43.405Z,36.92
2017-05-11T13:09:12.316Z,36.22
2017-05-11T13:10:34.266Z,35.42
2017-05-11T13:11:56.172Z,34.71
2017-05-11T13:13:23.344Z,33.3
2017-05-11T13:14:45.472Z,31.43
2017-05-11T13:16:07.604Z,29.55
2017-05-11T13:17:29.562Z,29.83
2017-05-11T13:18:51.578Z,31.64
2017-05-11T13:20:13.613Z,32.9
2017-05-11T13:21:35.453Z,32.5
2017-05-11T13:22:58.186Z,31.58
2017-05-11T13:24:20.688Z,31.73
2017-05-11T13:25:42.926Z,32.48
2017-05-11T13:27:05.109Z,33
2017-05-11T13:28:33.115Z,33.32
2017-05-11T13:29:55.774Z,33.45
2017-05-11T13:31:17.719Z,33.77
2017-05-11T13:32:39.544Z,33.92
2017-05-11T13:35:36.662Z,33.47
2017-05-11T13:36:58.538Z,32.76
2017-05-11T13:38:20.403Z,32.6
2017-05-11T13:39:42.310Z,30.92
2017-05-11T13:41:04.258Z,29.31
2017-05-11T13:42:26.244Z,28.44
2017-05-11T13:43:48.177Z,27.59
2017-05-11T13:45:10.138Z,27.48
2017-05-11T13:46:32.016Z,27.43
2017-05-11T13:47:53.929Z,27.09
2017-05-11T13:49:15.835Z,26.55
2017-05-11T13:50:37.844Z,26.42
2017-05-11T13:51:59.728Z,26.41
2017-05-11T13:53:21.616Z,26.32
2017-05-11T13:54:49.764Z,26.38
2017-05-11T13:56:16.931Z,26.45
2017-05-11T13:57:38.801Z,26.29
2017-05-11T13:59:00.678Z,26.38
2017-05-11T14:00:22.524Z,26.46
2017-05-11T14:01:44.421Z,26.53
2017-05-11T14:03:08.557Z,27.12
2017-05-11T14:04:30.464Z,27.17
2017-05-11T14:05:58.205Z,28
2017-05-11T14:07:20.380Z,28.29
2017-05-11T14:08:42.389Z,27.95
2017-05-11T14:10:06.291Z,27.29
2017-05-11T14:11:28.192Z,26.51
2017-05-11T14:12:51.093Z,26.5
2017-05-11T14:14:13.114Z,26.9
2017-05-11T14:15:43.516Z,28.05
2017-05-11T14:17:11.773Z,27.34
2017-05-11T14:18:33.888Z,26.93
2017-05-11T14:19:55.896Z,28.54
2017-05-11T14:21:18.383Z,29.55
2017-05-11T14:22:40.263Z,30.5
2017-05-11T14:24:02.216Z,31.23
2017-05-11T14:25:24.228Z,32.1
2017-05-11T14:26:46.176Z,32.45
2017-05-11T14:28:08.203Z,32.61
2017-05-11T14:29:30.090Z,32.68
2017-05-11T14:30:51.983Z,32.54
2017-05-11T14:32:13.899Z,32.49
2017-05-11T14:33:35.863Z,32.1
2017-05-11T14:34:57.810Z,30.63
2017-05-11T14:36:28.487Z,29.92
2017-05-11T14:37:50.520Z,30.59
2017-05-11T14:39:12.538Z,32.18
2017-05-11T14:40:34.459Z,33.47
2017-05-11T14:41:56.389Z,34.23
2017-05-11T14:43:23.488Z,34.47
2017-05-11T14:44:45.410Z,34.69
2017-05-11T14:46:07.242Z,34.76
2017-05-11T14:47:29.045Z,35.26
2017-05-11T14:48:50.954Z,35.88
2017-05-11T14:50:12.865Z,36.35
2017-05-11T14:51:34.817Z,36.71
2017-05-11T14:52:56.759Z,36.89
2017-05-11T14:54:18.641Z,36.89
2017-05-11T14:55:40.584Z,36.99
2017-05-11T14:57:04.767Z,37.21
2017-05-11T14:58:38.310Z,37.52
2017-05-11T15:00:00.278Z,37.81
2017-05-11T15:01:22.207Z,38.02
2017-05-11T15:02:44.157Z,38.27
2017-05-11T15:04:06.161Z,38.54
2017-05-11T15:05:28.051Z,38.79
2017-05-11T15:06:49.875Z,38.83
2017-05-11T15:08:11.729Z,38.8
2017-05-11T15:09:33.601Z,38.74
2017-05-11T15:10:57.132Z,38.75
2017-05-11T15:12:19.062Z,38.88
2017-05-11T15:13:41.985Z,38.78
2017-05-11T15:15:03.914Z,38.67
2017-05-11T15:16:25.960Z,38.69
2017-05-11T15:17:47.896Z,38.75
2017-05-11T15:19:09.821Z,38.95
2017-05-11T15:20:31.723Z,39.3
2017-05-11T15:21:53.689Z,39.68
2017-05-11T15:23:15.681Z,40
2017-05-11T15:24:37.599Z,40.27
2017-05-11T15:25:59.573Z,40.42
2017-05-11T15:27:21.554Z,40.58
2017-05-11T15:28:43.462Z,40.82
2017-05-11T15:30:05.338Z,41.04
2017-05-11T15:31:27.224Z,41.21
2017-05-11T15:32:49.149Z,41.36
2017-05-11T15:34:11.028Z,41.55
2017-05-11T15:35:32.930Z,41.55
2017-05-11T15:36:54.880Z,41.89
2017-05-11T15:38:16.989Z,42.13
2017-05-11T15:39:42.948Z,42.4
2017-05-11T15:41:05.068Z,42.58
2017-05-11T15:42:28.074Z,42.62
2017-05-11T15:43:50.511Z,42.77
2017-05-11T15:45:13.011Z,42.93
2017-05-11T15:46:36.599Z,43.06
2017-05-11T15:48:05.049Z,43.15
2017-05-11T15:49:27.760Z,43.16
2017-05-11T15:50:57.345Z,43.17
2017-05-11T15:52:23.632Z,43.14
2017-05-11T15:53:46.830Z,43.04
2017-05-11T15:55:13.483Z,43.04
2017-05-11T15:56:39.515Z,43.02
2017-05-11T15:58:05.966Z,43.08
2017-05-11T15:59:33.953Z,43.24
2017-05-11T16:01:15.107Z,43.41
2017-05-11T16:04:21.632Z,43.58
2017-05-11T16:34:40.825Z,44.97
2017-05-11T17:22:42.602Z,45.75
2017-05-11T18:26:54.756Z,46.38
2017-05-11T18:31:11.766Z,46.31
2017-05-11T18:46:51.626Z,46.91
2017-05-11T20:36:29.184Z,47.13
2017-05-11T20:38:18.058Z,47
2017-05-11T20:42:02.298Z,46.75
2017-05-11T20:43:42.652Z,46.66
2017-05-11T20:45:39.627Z,46.66
2017-05-11T20:47:43.707Z,46.64
2017-05-11T20:49:11.662Z,46.67
2017-05-11T20:50:48.162Z,46.68
2017-05-11T20:52:42.823Z,46.69
2017-05-11T20:54:21.027Z,46.69
2017-05-11T20:55:49.636Z,46.69
2017-05-11T20:59:21.160Z,46.68
